Time;durP1;ratioP1;P1;durP2;ratioP2;P2;SDS_P1;SDS_P2;PMS_P1;PMS_P2;Temp;Humidity;BMP_temperature;BMP_pressure;BME280_temperature;BME280_humidity;BME280_pressure;Samples;Min_cycle;Max_cycle;Signal;HPM_P1;HPM_P2
2022/02/25 00:02:10;;;;;;;1.10;0.70;;;0.80;96.30;;;;;;4898263;29;20473;-74
2022/02/25 00:04:35;;;;;;;1.00;0.80;;;0.80;96.30;;;;;;4897092;29;20260;-74
2022/02/25 00:07:01;;;;;;;3.83;0.73;;;0.80;96.30;;;;;;4898545;29;20522;-75
2022/02/25 00:09:26;;;;;;;0.90;0.80;;;0.80;96.30;;;;;;4898053;29;20176;-74
2022/02/25 00:11:52;;;;;;;1.47;0.80;;;0.90;96.30;;;;;;4897993;29;20632;-74
2022/02/25 00:14:17;;;;;;;3.63;1.10;;;0.90;96.30;;;;;;4898213;29;20169;-75
2022/02/25 00:16:43;;;;;;;1.67;0.80;;;0.90;96.30;;;;;;4898044;29;20244;-74
2022/02/25 00:19:09;;;;;;;0.90;0.70;;;0.90;96.30;;;;;;4897777;29;20260;-74
2022/02/25 00:21:34;;;;;;;1.30;0.80;;;0.80;96.30;;;;;;4897943;29;20336;-75
2022/02/25 00:24:00;;;;;;;1.10;0.70;;;0.80;96.30;;;;;;4897970;29;20181;-75
2022/02/25 00:26:25;;;;;;;2.50;0.87;;;0.80;96.30;;;;;;4897960;29;20187;-74
2022/02/25 00:28:51;;;;;;;1.30;0.90;;;0.80;96.30;;;;;;4897681;29;20687;-74
2022/02/25 00:31:17;;;;;;;0.80;0.70;;;0.90;96.30;;;;;;4897614;29;20674;-74
2022/02/25 00:33:42;;;;;;;1.60;0.80;;;0.90;96.30;;;;;;4897734;29;20305;-75
2022/02/25 00:36:08;;;;;;;1.00;0.87;;;0.80;96.30;;;;;;4896503;29;20189;-74
2022/02/25 00:38:33;;;;;;;1.57;1.13;;;0.90;96.30;;;;;;4897342;29;20181;-74
2022/02/25 00:40:59;;;;;;;2.97;1.00;;;0.80;96.30;;;;;;4897322;29;20221;-74
2022/02/25 00:43:24;;;;;;;1.73;1.00;;;0.80;96.30;;;;;;4896310;29;20184;-74
2022/02/25 00:45:50;;;;;;;3.23;1.00;;;0.80;96.30;;;;;;4896078;29;20189;-74
2022/02/25 00:48:15;;;;;;;1.30;1.00;;;0.80;96.30;;;;;;4897205;29;20183;-74
2022/02/25 00:50:41;;;;;;;1.60;0.90;;;0.80;96.30;;;;;;4896080;29;20208;-74
2022/02/25 00:53:07;;;;;;;1.00;0.90;;;0.80;96.30;;;;;;4896070;29;20193;-74
2022/02/25 00:55:32;;;;;;;1.37;0.80;;;0.70;96.30;;;;;;4897284;29;20220;-74
2022/02/25 00:57:58;;;;;;;1.10;0.90;;;0.70;96.30;;;;;;4897059;29;20181;-74
2022/02/25 05:01:12;;;;;;;4.73;1.97;;;0.20;96.30;;;;;;5507422;23;20482;-74
2022/02/25 05:03:38;;;;;;;2.17;1.90;;;0.20;96.30;;;;;;4897188;29;20420;-74
2022/02/25 05:06:04;;;;;;;3.20;2.40;;;0.20;96.30;;;;;;4897203;29;20173;-74
2022/02/25 05:08:29;;;;;;;1.90;1.63;;;0.20;96.30;;;;;;4895354;29;20232;-74
2022/02/25 05:10:55;;;;;;;3.33;2.20;;;0.20;96.30;;;;;;4897090;29;20201;-74
2022/02/25 05:13:21;;;;;;;1.87;1.60;;;0.20;96.30;;;;;;4897152;29;20236;-74
2022/02/25 05:26:26;;;;;;;2.80;1.40;;;0.20;96.30;;;;;;5208592;23;20496;-75
2022/02/25 05:28:52;;;;;;;2.70;1.70;;;0.20;96.30;;;;;;4896357;29;20895;-74
2022/02/25 05:31:17;;;;;;;4.03;2.20;;;0.20;96.30;;;;;;4896791;29;20435;-74
2022/02/25 05:33:43;;;;;;;1.60;1.50;;;0.10;96.30;;;;;;4896860;29;20654;-74
2022/02/25 05:36:10;;;;;;;1.87;1.30;;;0.10;96.30;;;;;;4896935;29;20550;-74
2022/02/25 05:38:35;;;;;;;2.77;1.50;;;0.10;96.30;;;;;;4895020;29;20432;-74
2022/02/25 05:41:02;;;;;;;3.10;1.70;;;0.10;96.30;;;;;;4896713;29;20213;-75
2022/02/25 05:43:27;;;;;;;3.57;1.20;;;0.10;96.30;;;;;;4895510;29;20184;-75
2022/02/25 05:45:53;;;;;;;2.93;1.50;;;0.10;96.30;;;;;;4896817;29;20409;-74
2022/02/25 05:48:18;;;;;;;1.20;0.97;;;0.00;96.30;;;;;;4896330;29;20185;-74
2022/02/25 05:50:44;;;;;;;1.90;1.20;;;0.00;96.30;;;;;;4896755;29;20236;-74
2022/02/25 05:53:09;;;;;;;2.67;1.40;;;-0.10;96.30;;;;;;4896774;29;20236;-74
2022/02/25 05:55:35;;;;;;;1.20;1.10;;;-0.10;96.30;;;;;;4896722;29;20647;-75
2022/02/25 05:58:00;;;;;;;2.30;1.30;;;-0.10;96.30;;;;;;4896058;29;20177;-75
2022/02/25 06:00:26;;;;;;;1.20;0.90;;;-0.10;96.30;;;;;;4896611;29;20196;-76
2022/02/25 06:02:52;;;;;;;1.37;1.10;;;-0.10;96.30;;;;;;4896789;29;20553;-76
2022/02/25 06:05:19;;;;;;;2.20;1.10;;;-0.10;96.30;;;;;;4896130;29;20174;-75
2022/02/25 06:07:45;;;;;;;2.70;0.90;;;-0.20;96.30;;;;;;4885653;29;20428;-76
2022/02/25 06:10:11;;;;;;;3.63;1.07;;;-0.20;96.30;;;;;;4891919;29;20807;-75
2022/02/25 06:12:38;;;;;;;2.10;1.30;;;-0.30;96.30;;;;;;4881574;29;20190;-75
2022/02/25 06:15:05;;;;;;;2.00;0.90;;;-0.30;96.30;;;;;;4892294;29;20412;-76
2022/02/25 06:17:30;;;;;;;1.70;1.20;;;-0.30;96.30;;;;;;4898507;29;20923;-75
2022/02/25 06:19:56;;;;;;;2.00;1.03;;;-0.30;96.30;;;;;;4898729;29;20471;-76
2022/02/25 06:22:21;;;;;;;3.50;1.07;;;-0.40;96.30;;;;;;4898437;29;20195;-76
2022/02/25 06:24:47;;;;;;;1.00;0.80;;;-0.30;96.30;;;;;;4881198;29;20181;-77
2022/02/25 06:27:12;;;;;;;3.43;1.30;;;-0.40;96.30;;;;;;4881383;29;20277;-75
2022/02/25 06:29:38;;;;;;;1.60;1.00;;;-0.30;96.30;;;;;;4880947;29;20177;-76
2022/02/25 06:32:04;;;;;;;1.27;0.80;;;-0.40;96.30;;;;;;4880020;29;20596;-77
2022/02/25 06:34:29;;;;;;;1.00;0.80;;;-0.40;96.30;;;;;;4891038;29;20211;-77
2022/02/25 06:36:55;;;;;;;4.80;1.33;;;-0.40;96.30;;;;;;4898571;29;20456;-77
2022/02/25 06:39:20;;;;;;;2.67;0.90;;;-0.40;96.30;;;;;;4891618;29;20650;-75
2022/02/25 06:41:46;;;;;;;2.97;0.90;;;-0.50;96.30;;;;;;4880923;29;20659;-75
2022/02/25 06:44:12;;;;;;;1.00;0.90;;;-0.50;96.30;;;;;;4879783;29;20789;-75
2022/02/25 06:46:38;;;;;;;3.87;1.10;;;-0.50;96.30;;;;;;4879721;29;20635;-75
2022/02/25 06:49:04;;;;;;;2.17;0.80;;;-0.50;96.30;;;;;;4879492;29;20508;-75
2022/02/25 06:51:31;;;;;;;2.60;1.30;;;-0.50;96.30;;;;;;4887241;29;20449;-75
2022/02/25 06:53:58;;;;;;;4.47;1.10;;;-0.40;96.30;;;;;;4899515;29;20902;-75
2022/02/25 06:56:23;;;;;;;3.67;1.00;;;-0.40;96.30;;;;;;4880873;29;20422;-75
2022/02/25 06:58:49;;;;;;;2.67;1.07;;;-0.30;96.30;;;;;;4885561;29;20449;-75
2022/02/25 07:01:14;;;;;;;1.10;0.90;;;-0.40;96.30;;;;;;4898708;29;20605;-76
2022/02/25 07:03:40;;;;;;;1.20;1.00;;;0.10;96.30;;;;;;4897945;29;20273;-75
2022/02/25 07:06:05;;;;;;;1.40;1.17;;;0.20;96.30;;;;;;4899166;29;20177;-75
2022/02/25 07:08:31;;;;;;;4.57;1.03;;;0.10;96.30;;;;;;4897274;29;20578;-76
2022/02/25 07:10:57;;;;;;;2.80;1.10;;;0.10;96.30;;;;;;4898972;29;20197;-76
2022/02/25 07:13:22;;;;;;;2.67;1.57;;;1.00;96.30;;;;;;4898906;29;20189;-76
2022/02/25 07:15:48;;;;;;;2.17;1.10;;;2.20;96.30;;;;;;4898776;29;20470;-76
2022/02/25 07:18:15;;;;;;;4.27;1.47;;;2.50;96.30;;;;;;4898411;29;20180;-75
2022/02/25 07:20:43;;;;;;;2.83;1.20;;;3.10;96.30;;;;;;4897977;29;20295;-76
2022/02/25 07:23:09;;;;;;;4.50;1.70;;;2.90;96.30;;;;;;4898704;29;20416;-76
2022/02/25 07:25:34;;;;;;;4.80;1.50;;;3.10;96.30;;;;;;4898648;29;20441;-77
2022/02/25 07:28:00;;;;;;;3.70;1.10;;;3.00;96.30;;;;;;4896669;29;20514;-75
2022/02/25 07:30:28;;;;;;;1.47;0.90;;;2.90;96.30;;;;;;4892120;29;20189;-75
2022/02/25 07:32:54;;;;;;;4.17;1.03;;;3.10;96.30;;;;;;4890466;29;20246;-76
2022/02/25 07:35:20;;;;;;;2.07;0.93;;;2.90;96.30;;;;;;4895136;29;20437;-76
2022/02/25 07:37:46;;;;;;;4.53;0.97;;;2.70;96.30;;;;;;4896832;29;20443;-75
2022/02/25 07:40:13;;;;;;;1.10;0.73;;;2.10;96.30;;;;;;4891089;29;20208;-75
2022/02/25 07:42:40;;;;;;;5.13;1.33;;;2.00;96.30;;;;;;4889977;29;20584;-75
2022/02/25 07:45:07;;;;;;;1.57;0.90;;;1.70;96.30;;;;;;4887449;29;20513;-75
2022/02/25 07:47:32;;;;;;;1.60;1.00;;;1.50;96.30;;;;;;4883859;29;20438;-76
2022/02/25 07:49:58;;;;;;;2.13;1.10;;;1.50;96.30;;;;;;4879125;29;20414;-75
2022/02/25 07:52:23;;;;;;;1.30;0.70;;;1.50;96.30;;;;;;4897050;29;20240;-75
2022/02/25 07:54:49;;;;;;;1.83;1.10;;;1.50;96.30;;;;;;4898354;29;20683;-76
2022/02/25 07:57:15;;;;;;;2.17;1.43;;;1.50;96.30;;;;;;4898093;29;20267;-75
2022/02/25 07:59:42;;;;;;;3.37;0.70;;;1.50;96.30;;;;;;4889366;29;20900;-75
2022/02/25 08:02:09;;;;;;;1.40;1.20;;;1.50;96.30;;;;;;4886113;29;20197;-75
2022/02/25 08:04:35;;;;;;;2.40;1.00;;;1.50;96.30;;;;;;4886430;29;20450;-75
2022/02/25 08:07:02;;;;;;;2.73;1.20;;;1.50;96.30;;;;;;4892743;29;20485;-75
2022/02/25 08:09:27;;;;;;;1.83;1.13;;;1.50;96.30;;;;;;4890098;29;20484;-75
2022/02/25 08:11:53;;;;;;;2.67;1.30;;;1.50;96.30;;;;;;4897818;29;20476;-75
2022/02/25 08:14:19;;;;;;;1.20;0.80;;;1.50;96.30;;;;;;4896547;29;20550;-75
2022/02/25 08:16:44;;;;;;;1.93;0.70;;;1.70;96.30;;;;;;4886220;29;20196;-75
2022/02/25 08:19:10;;;;;;;2.03;1.00;;;1.70;96.30;;;;;;4897453;29;20695;-75
2022/02/25 08:21:36;;;;;;;4.47;1.23;;;1.60;96.30;;;;;;4897622;29;20562;-77
2022/02/25 08:24:02;;;;;;;4.10;1.10;;;1.60;96.30;;;;;;4897646;29;20532;-75
2022/02/25 08:26:28;;;;;;;1.87;1.20;;;1.60;96.30;;;;;;4897420;29;20679;-75
2022/02/25 08:28:55;;;;;;;3.47;1.70;;;1.40;96.30;;;;;;4897271;29;20416;-75
2022/02/25 08:31:22;;;;;;;2.67;1.47;;;1.40;96.30;;;;;;4896180;29;20600;-75
2022/02/25 08:33:47;;;;;;;5.87;1.30;;;1.50;96.30;;;;;;4885937;29;20431;-75
2022/02/25 08:36:13;;;;;;;4.57;1.00;;;1.50;96.30;;;;;;4897438;29;20988;-75
2022/02/25 08:38:38;;;;;;;3.27;1.37;;;1.60;96.30;;;;;;4897209;29;20177;-75
2022/02/25 08:41:04;;;;;;;4.20;1.27;;;1.60;96.30;;;;;;4895966;29;20686;-75
2022/02/25 08:43:30;;;;;;;4.83;1.60;;;1.60;96.30;;;;;;4897487;29;20605;-76
2022/02/25 08:45:57;;;;;;;2.63;1.27;;;1.60;96.30;;;;;;4897370;29;20208;-77
2022/02/25 08:48:23;;;;;;;1.87;1.10;;;1.60;96.30;;;;;;4897223;29;20492;-75
2022/02/25 08:50:49;;;;;;;2.40;1.20;;;1.50;96.30;;;;;;4897193;29;20500;-76
2022/02/25 08:53:15;;;;;;;3.80;1.10;;;1.50;96.30;;;;;;4891047;29;20512;-76
2022/02/25 08:55:41;;;;;;;1.63;1.00;;;1.70;96.30;;;;;;4878665;29;20708;-76
2022/02/25 08:58:06;;;;;;;2.20;1.03;;;1.80;96.30;;;;;;4877059;29;20188;-76
2022/02/25 09:00:32;;;;;;;11.70;1.80;;;2.00;96.30;;;;;;4879367;29;20288;-76
2022/02/25 09:02:57;;;;;;;1.50;1.10;;;1.90;96.30;;;;;;4877292;29;20237;-75
2022/02/25 09:05:23;;;;;;;3.37;1.20;;;1.80;96.30;;;;;;4878346;29;20209;-76
2022/02/25 09:07:51;;;;;;;3.17;1.30;;;1.80;96.30;;;;;;4888776;29;20265;-76
2022/02/25 09:10:17;;;;;;;4.23;1.30;;;1.80;96.30;;;;;;4896952;29;20768;-76
2022/02/25 09:12:44;;;;;;;2.50;1.30;;;1.80;96.30;;;;;;4895804;29;20456;-76
2022/02/25 09:15:14;;;;;;;1.90;1.07;;;1.90;96.30;;;;;;4895762;29;20943;-75
2022/02/25 09:17:40;;;;;;;2.90;0.97;;;1.90;96.30;;;;;;4896814;29;20429;-75
2022/02/25 09:20:07;;;;;;;1.20;0.90;;;1.90;96.30;;;;;;4887329;29;20461;-77
2022/02/25 09:22:33;;;;;;;3.30;1.20;;;1.90;96.30;;;;;;4878169;29;20525;-75
2022/02/25 09:24:59;;;;;;;5.43;1.23;;;2.10;96.30;;;;;;4883530;29;20473;-78
2022/02/25 09:27:27;;;;;;;4.53;1.80;;;2.40;96.30;;;;;;4891065;29;20434;-76
2022/02/25 09:29:53;;;;;;;5.07;1.30;;;2.70;96.30;;;;;;4896287;29;20184;-77
2022/02/25 09:32:19;;;;;;;3.17;1.27;;;3.00;96.30;;;;;;4884475;29;20458;-76
2022/02/25 09:34:44;;;;;;;2.50;1.37;;;3.30;96.30;;;;;;4876579;29;20481;-76
2022/02/25 09:37:10;;;;;;;2.83;0.90;;;4.20;96.30;;;;;;4890187;29;20208;-76
2022/02/25 09:39:35;;;;;;;1.73;1.00;;;4.80;96.30;;;;;;4888231;29;20213;-75
2022/02/25 09:42:01;;;;;;;1.23;0.90;;;4.50;96.30;;;;;;4884775;29;20672;-76
2022/02/25 09:44:27;;;;;;;2.93;1.27;;;4.10;96.30;;;;;;4883623;29;20208;-76
2022/02/25 09:46:54;;;;;;;1.20;0.80;;;3.60;96.30;;;;;;4897796;29;20280;-77
2022/02/25 09:49:19;;;;;;;3.23;1.20;;;3.20;96.30;;;;;;4898766;29;20428;-77
2022/02/25 09:51:46;;;;;;;1.60;1.30;;;3.00;96.30;;;;;;4900284;29;20799;-77
2022/02/25 09:54:18;;;;;;;1.57;1.10;;;2.90;96.30;;;;;;4900314;29;20177;-77
2022/02/25 09:56:46;;;;;;;2.20;1.00;;;3.20;96.30;;;;;;4887007;29;20939;-77
2022/02/25 09:59:12;;;;;;;4.03;1.33;;;3.30;96.30;;;;;;4890077;29;20417;-76
2022/02/25 10:01:37;;;;;;;1.80;0.93;;;3.70;96.30;;;;;;4888955;29;20433;-79
2022/02/25 10:04:19;;;;;;;3.00;1.43;;;3.40;96.30;;;;;;4893879;29;20184;-79
2022/02/25 10:06:45;;;;;;;2.27;1.17;;;2.90;96.30;;;;;;4897224;29;20180;-79
2022/02/25 10:09:12;;;;;;;1.33;0.97;;;2.60;96.30;;;;;;4888043;29;20421;-78
2022/02/25 10:11:57;;;;;;;3.03;1.30;;;2.50;96.30;;;;;;4896572;29;20445;-80
2022/02/25 10:14:33;;;;;;;2.70;1.10;;;2.70;96.30;;;;;;4890052;29;20425;-80
2022/02/25 10:17:26;;;;;;;5.17;1.30;;;2.60;96.30;;;;;;4894776;29;20779;-80
2022/02/25 10:20:00;;;;;;;2.73;1.13;;;3.40;96.30;;;;;;4880253;29;20537;-80
2022/02/25 10:22:39;;;;;;;2.03;1.10;;;3.20;96.30;;;;;;4897138;29;20521;-81
2022/02/25 10:25:08;;;;;;;1.97;1.10;;;2.80;96.30;;;;;;4900253;29;20407;-81
2022/02/25 10:27:43;;;;;;;1.90;1.17;;;2.40;96.30;;;;;;4890679;29;20473;-82
2022/02/25 10:30:15;;;;;;;6.13;1.50;;;2.50;96.30;;;;;;4889520;29;20792;-81
2022/02/25 10:32:43;;;;;;;3.43;1.53;;;2.60;96.30;;;;;;4887065;29;20439;-81
2022/02/25 10:35:35;;;;;;;4.07;1.20;;;2.60;96.30;;;;;;4880325;29;20434;-80
2022/02/25 10:38:08;;;;;;;3.60;1.27;;;2.50;96.30;;;;;;4882020;29;20514;-80
2022/02/25 10:40:41;;;;;;;2.80;0.90;;;2.60;96.30;;;;;;4884029;29;20477;-77
2022/02/25 10:43:10;;;;;;;5.83;1.23;;;2.90;96.30;;;;;;4888535;29;20509;-77
2022/02/25 10:45:38;;;;;;;3.50;1.00;;;2.90;96.30;;;;;;4888970;29;20421;-77
2022/02/25 10:48:12;;;;;;;4.30;1.23;;;3.50;96.30;;;;;;4879204;29;20508;-80
2022/02/25 10:50:49;;;;;;;4.50;1.20;;;3.40;96.30;;;;;;4881562;29;20446;-78
2022/02/25 10:53:24;;;;;;;5.80;1.20;;;4.00;96.30;;;;;;4879385;29;20466;-78
2022/02/25 10:55:50;;;;;;;2.80;0.90;;;4.20;96.30;;;;;;4884831;29;20485;-76
2022/02/25 10:58:17;;;;;;;1.33;1.00;;;3.40;96.30;;;;;;4893214;29;20425;-77
2022/02/25 11:00:43;;;;;;;3.00;1.20;;;3.90;96.30;;;;;;4895296;29;20272;-77
2022/02/25 11:03:13;;;;;;;2.10;1.00;;;4.20;96.30;;;;;;4880122;29;20509;-76
2022/02/25 11:05:42;;;;;;;1.70;0.90;;;4.10;96.30;;;;;;4880551;29;20548;-77
2022/02/25 11:08:07;;;;;;;3.03;1.10;;;3.40;96.30;;;;;;4888511;29;20429;-76
2022/02/25 11:10:35;;;;;;;7.30;1.27;;;3.30;96.30;;;;;;4885985;29;20951;-75
2022/02/25 11:13:05;;;;;;;2.73;1.10;;;2.90;96.30;;;;;;4891863;29;20303;-76
2022/02/25 11:15:37;;;;;;;6.10;1.67;;;2.80;96.30;;;;;;4879426;29;20506;-77
2022/02/25 11:18:03;;;;;;;7.23;0.90;;;3.60;96.30;;;;;;4891466;29;20425;-78
2022/02/25 11:20:32;;;;;;;4.23;1.30;;;4.20;96.30;;;;;;4892618;29;20472;-75
2022/02/25 11:23:06;;;;;;;3.07;1.00;;;4.20;96.30;;;;;;4880039;29;20426;-76
2022/02/25 11:26:03;;;;;;;2.33;1.00;;;4.90;96.30;;;;;;4888693;29;20524;-78
2022/02/25 11:28:28;;;;;;;3.80;2.30;;;4.90;96.30;;;;;;4806545;29;20809;-77
2022/02/25 14:43:54;;;;;;;3.93;1.30;;;3.70;96.30;;;;;;5113158;23;20497;-77
2022/02/25 14:46:20;;;;;;;4.60;1.37;;;3.80;96.30;;;;;;4956082;29;20479;-75
2022/02/25 14:48:48;;;;;;;5.47;1.23;;;3.70;96.30;;;;;;4938692;29;20198;-77
2022/02/25 14:51:15;;;;;;;5.63;1.60;;;3.70;96.30;;;;;;4956404;29;20175;-77
2022/02/25 14:53:41;;;;;;;4.70;1.10;;;3.70;96.30;;;;;;4955961;29;20434;-77
2022/02/25 14:56:07;;;;;;;6.67;1.87;;;3.70;96.30;;;;;;4956126;29;20407;-77
2022/02/25 14:58:33;;;;;;;2.33;0.90;;;3.70;96.30;;;;;;4955733;29;20182;-76
2022/02/25 15:01:01;;;;;;;3.17;1.03;;;3.60;96.30;;;;;;4956066;29;20206;-76
2022/02/25 15:03:27;;;;;;;2.80;1.13;;;3.50;96.30;;;;;;4956298;29;20443;-77
2022/02/25 15:05:52;;;;;;;6.23;1.20;;;3.00;96.30;;;;;;4955994;29;20978;-79
2022/02/25 15:08:18;;;;;;;1.90;0.90;;;2.50;96.30;;;;;;4967143;28;20501;-78
2022/02/25 15:10:44;;;;;;;7.30;1.60;;;2.20;96.30;;;;;;4955778;29;20265;-77
2022/02/25 15:13:10;;;;;;;4.13;0.90;;;2.00;96.30;;;;;;4955801;29;20209;-78
2022/02/25 15:15:35;;;;;;;8.63;1.30;;;1.70;96.30;;;;;;4939078;29;20190;-78
2022/02/25 15:18:01;;;;;;;3.57;1.17;;;1.30;96.30;;;;;;4937914;29;20901;-78
2022/02/25 15:20:28;;;;;;;2.50;1.10;;;1.10;96.30;;;;;;4942009;28;20689;-78
2022/02/25 15:22:53;;;;;;;2.40;0.90;;;1.00;96.30;;;;;;4936483;29;20522;-77
2022/02/25 15:25:19;;;;;;;4.23;1.47;;;0.90;96.30;;;;;;4958285;28;20514;-78
2022/02/25 15:27:45;;;;;;;4.57;1.27;;;0.90;96.30;;;;;;4955860;29;20277;-79
2022/02/25 15:30:13;;;;;;;7.03;1.50;;;0.80;96.30;;;;;;4940380;29;20427;-76
2022/02/25 15:32:39;;;;;;;2.10;1.33;;;0.90;96.30;;;;;;4927588;29;20461;-76
2022/02/25 15:35:05;;;;;;;2.40;1.10;;;0.80;96.30;;;;;;4944955;28;20981;-77
2022/02/25 15:37:31;;;;;;;2.97;1.17;;;0.80;96.30;;;;;;4948787;28;20190;-77
2022/02/25 15:39:57;;;;;;;1.63;1.10;;;0.70;96.30;;;;;;4931917;29;20454;-77
2022/02/25 15:42:22;;;;;;;4.77;1.53;;;0.80;96.30;;;;;;4936722;29;20476;-76
2022/02/25 15:44:48;;;;;;;3.20;1.20;;;0.80;96.30;;;;;;4934951;29;20203;-77
2022/02/25 15:47:14;;;;;;;3.93;1.30;;;0.80;96.30;;;;;;4937856;29;20185;-76
2022/02/25 15:49:40;;;;;;;5.73;1.40;;;0.80;96.30;;;;;;4937385;29;20308;-76
2022/02/25 15:52:06;;;;;;;1.53;0.97;;;0.80;96.30;;;;;;4937606;28;20175;-76
2022/02/25 15:54:32;;;;;;;4.20;2.07;;;0.70;96.30;;;;;;4937910;29;20418;-76
2022/02/25 15:56:59;;;;;;;1.63;0.97;;;0.70;96.30;;;;;;4938130;29;20699;-76
2022/02/25 15:59:24;;;;;;;3.83;1.50;;;0.70;96.30;;;;;;4949905;29;20251;-77
2022/02/25 16:01:50;;;;;;;2.17;1.10;;;0.70;96.30;;;;;;4944594;29;20507;-76
2022/02/25 16:04:16;;;;;;;2.40;1.13;;;0.80;96.30;;;;;;4948067;29;20518;-76
2022/02/25 16:06:41;;;;;;;1.10;1.00;;;0.80;96.30;;;;;;4926592;29;20226;-76
2022/02/25 16:09:07;;;;;;;3.20;1.60;;;0.80;96.30;;;;;;4951849;29;20182;-77
2022/02/25 16:11:33;;;;;;;2.43;2.00;;;0.80;96.30;;;;;;4955182;29;20197;-76
2022/02/25 16:13:59;;;;;;;2.77;2.23;;;0.80;96.30;;;;;;4960233;29;20198;-78
2022/02/25 16:16:24;;;;;;;1.43;1.10;;;0.70;96.30;;;;;;4941768;29;20179;-78
2022/02/25 16:18:50;;;;;;;2.97;1.70;;;0.80;96.30;;;;;;4939805;29;20485;-79
2022/02/25 16:21:17;;;;;;;3.07;1.00;;;0.70;96.30;;;;;;4956433;29;20195;-79
2022/02/25 16:23:44;;;;;;;2.17;1.20;;;0.60;96.30;;;;;;4938282;29;20282;-79
2022/02/25 16:26:10;;;;;;;2.27;1.43;;;0.60;96.30;;;;;;4954662;29;20494;-77
2022/02/25 16:28:36;;;;;;;3.67;1.50;;;0.60;96.30;;;;;;4953942;29;20908;-78
2022/02/25 16:31:01;;;;;;;6.03;1.40;;;0.60;96.30;;;;;;4885791;28;20175;-76
2022/02/25 16:33:27;;;;;;;3.83;1.13;;;0.60;96.30;;;;;;4954241;29;20575;-77
2022/02/25 16:35:54;;;;;;;9.57;1.30;;;0.50;96.30;;;;;;4934885;29;20266;-77
2022/02/25 16:38:19;;;;;;;11.33;4.80;;;0.50;96.30;;;;;;4952942;29;20163;-76
2022/02/25 16:40:45;;;;;;;4.57;3.13;;;0.50;96.30;;;;;;4941368;29;20859;-75
2022/02/25 16:43:11;;;;;;;3.47;1.53;;;0.40;96.30;;;;;;4949330;29;20246;-75
2022/02/25 16:45:38;;;;;;;74.17;34.40;;;0.50;96.30;;;;;;4951771;29;20183;-77
2022/02/25 16:48:05;;;;;;;5.70;3.07;;;0.40;96.30;;;;;;4953418;28;20406;-75
2022/02/25 16:50:31;;;;;;;2.70;1.10;;;0.40;96.30;;;;;;4948283;29;20433;-75
2022/02/25 16:52:56;;;;;;;4.13;1.50;;;0.30;96.30;;;;;;4935336;29;20450;-75
2022/02/25 16:55:22;;;;;;;3.00;1.40;;;0.30;96.30;;;;;;4952668;29;20418;-75
2022/02/25 16:57:48;;;;;;;3.13;2.07;;;0.30;96.30;;;;;;4928052;29;20227;-75
2022/02/25 17:00:13;;;;;;;5.27;2.20;;;0.20;96.30;;;;;;4937517;29;20242;-74
2022/02/25 17:02:42;;;;;;;8.40;3.03;;;0.20;96.30;;;;;;4953980;28;20257;-74
2022/02/25 17:05:09;;;;;;;10.47;4.90;;;0.20;96.30;;;;;;4933189;29;21710;-73
2022/02/25 17:07:35;;;;;;;18.40;8.70;;;0.10;96.30;;;;;;4946107;29;20422;-73
2022/02/25 17:10:00;;;;;;;7.00;4.20;;;0.10;96.30;;;;;;4950723;28;20419;-75
2022/02/25 17:12:26;;;;;;;3.50;2.23;;;0.20;96.30;;;;;;4948481;29;20573;-75
2022/02/25 17:14:52;;;;;;;8.27;4.33;;;0.10;96.30;;;;;;4931861;29;20553;-75
2022/02/25 17:17:18;;;;;;;9.17;2.73;;;0.20;96.30;;;;;;4932971;29;20182;-74
2022/02/25 17:19:44;;;;;;;4.37;3.93;;;0.10;96.30;;;;;;4951147;29;20720;-74
2022/02/25 17:22:10;;;;;;;3.90;1.90;;;0.20;96.30;;;;;;4932608;29;20542;-74
2022/02/25 17:24:37;;;;;;;7.53;1.77;;;0.20;96.30;;;;;;4947398;29;20430;-74
2022/02/25 17:27:03;;;;;;;4.77;2.20;;;0.30;96.30;;;;;;4952851;29;20434;-74
2022/02/25 17:29:29;;;;;;;1.83;1.40;;;0.30;96.30;;;;;;4950552;28;20418;-74
2022/02/25 17:31:54;;;;;;;2.47;1.40;;;0.20;96.30;;;;;;4928846;29;20438;-74
2022/02/25 17:34:22;;;;;;;3.20;1.50;;;0.20;96.30;;;;;;4951767;29;20179;-74
2022/02/25 17:36:48;;;;;;;3.47;1.50;;;0.30;96.30;;;;;;4949044;29;20657;-74
2022/02/25 17:39:14;;;;;;;5.30;2.10;;;0.40;96.30;;;;;;4952975;29;20458;-74
2022/02/25 17:41:41;;;;;;;3.00;1.40;;;0.50;96.30;;;;;;4946672;29;20187;-74
2022/02/25 17:44:07;;;;;;;2.90;1.10;;;0.40;96.30;;;;;;4949136;29;20457;-74
2022/02/25 17:46:33;;;;;;;4.83;2.47;;;0.40;96.30;;;;;;4950885;29;20505;-72
2022/02/25 17:48:59;;;;;;;5.17;2.50;;;0.40;96.30;;;;;;4952383;29;20537;-73
2022/02/25 17:51:24;;;;;;;9.03;3.27;;;0.30;96.30;;;;;;4954788;29;20187;-72
2022/02/25 17:53:50;;;;;;;4.40;2.30;;;0.30;96.30;;;;;;4952377;28;20198;-73
2022/02/25 17:56:15;;;;;;;6.30;2.50;;;0.20;96.30;;;;;;4953638;29;20187;-72
2022/02/25 17:58:44;;;;;;;2.83;1.40;;;0.30;96.30;;;;;;4936711;29;20254;-72
2022/02/25 18:01:09;;;;;;;3.90;1.73;;;0.30;96.30;;;;;;4935378;29;20202;-74
2022/02/25 18:03:35;;;;;;;4.70;2.00;;;0.30;96.30;;;;;;4952843;29;20960;-75
2022/02/25 18:06:01;;;;;;;3.83;1.40;;;0.30;96.30;;;;;;4947029;28;20179;-74
2022/02/25 18:08:28;;;;;;;5.70;2.43;;;0.20;96.30;;;;;;4950779;28;20443;-74
2022/02/25 18:10:54;;;;;;;5.53;1.80;;;0.10;96.30;;;;;;4954177;28;20254;-75
2022/02/25 18:13:20;;;;;;;6.37;2.30;;;0.10;96.30;;;;;;4935901;29;20451;-75
2022/02/25 18:15:45;;;;;;;4.27;1.90;;;0.20;96.30;;;;;;4956290;29;20971;-75
2022/02/25 18:18:12;;;;;;;2.90;1.60;;;0.10;96.30;;;;;;4956181;29;20635;-75
2022/02/25 18:20:38;;;;;;;7.83;2.77;;;0.00;96.30;;;;;;4956662;28;20210;-75
2022/02/25 18:23:03;;;;;;;2.30;1.40;;;0.00;96.30;;;;;;4952478;29;20529;-75
2022/02/25 18:25:29;;;;;;;3.47;1.70;;;0.00;96.30;;;;;;4956207;28;20178;-75
2022/02/25 18:27:55;;;;;;;9.17;2.60;;;0.10;96.30;;;;;;4951142;29;20663;-75
2022/02/25 18:30:21;;;;;;;4.20;1.73;;;0.10;96.30;;;;;;4951709;28;20188;-75
2022/02/25 18:32:47;;;;;;;6.30;1.90;;;0.20;96.30;;;;;;4955335;29;20537;-75
2022/02/25 18:35:13;;;;;;;9.47;4.57;;;0.30;96.30;;;;;;4957443;28;20901;-75
2022/02/25 18:37:38;;;;;;;7.43;3.00;;;0.30;96.30;;;;;;4951792;29;20427;-74
2022/02/25 18:40:06;;;;;;;5.60;3.27;;;0.40;96.30;;;;;;4936602;29;20261;-75
2022/02/25 18:42:32;;;;;;;8.53;3.67;;;0.40;96.30;;;;;;4949079;29;20216;-75
2022/02/25 18:44:57;;;;;;;5.10;1.77;;;0.40;96.30;;;;;;4953848;28;20434;-75
2022/02/25 18:47:23;;;;;;;4.43;2.13;;;0.30;96.30;;;;;;4952925;28;20194;-75
2022/02/25 18:49:48;;;;;;;4.63;1.80;;;0.20;96.30;;;;;;4954491;28;20198;-75
2022/02/25 18:52:14;;;;;;;13.30;5.10;;;0.30;96.30;;;;;;4949118;29;20210;-74
2022/02/25 18:54:39;;;;;;;8.73;2.03;;;0.40;96.30;;;;;;4954513;28;20190;-75
2022/02/25 18:57:06;;;;;;;3.20;1.80;;;0.50;96.30;;;;;;4953273;29;20175;-75
2022/02/25 18:59:33;;;;;;;5.40;2.00;;;0.50;96.30;;;;;;4952782;29;20167;-75
2022/02/25 19:01:58;;;;;;;3.70;1.60;;;0.50;96.30;;;;;;4952932;28;20433;-75
2022/02/25 19:04:24;;;;;;;6.13;1.63;;;0.60;96.30;;;;;;4954226;29;20788;-75
2022/02/25 19:06:50;;;;;;;5.50;2.87;;;0.50;96.30;;;;;;4952868;29;20183;-75
2022/02/25 19:09:15;;;;;;;7.33;2.80;;;0.60;96.30;;;;;;4931982;29;20178;-75
2022/02/25 19:11:41;;;;;;;2.60;2.10;;;0.60;96.30;;;;;;4951078;29;20684;-75
2022/02/25 19:14:07;;;;;;;7.90;2.07;;;0.60;96.30;;;;;;4934136;29;20195;-74
2022/02/25 19:16:33;;;;;;;3.73;2.03;;;0.60;96.30;;;;;;4950403;28;20179;-75
2022/02/25 19:18:58;;;;;;;8.67;5.90;;;0.70;96.30;;;;;;4954650;29;20434;-76
2022/02/25 19:21:25;;;;;;;5.27;2.30;;;0.70;96.30;;;;;;4952650;29;20214;-76
2022/02/25 19:23:50;;;;;;;2.73;1.93;;;0.80;96.30;;;;;;4937551;29;20198;-76
2022/02/25 19:26:16;;;;;;;7.33;1.83;;;0.80;96.30;;;;;;4953438;28;20423;-75
2022/02/25 19:28:41;;;;;;;6.93;2.73;;;0.80;96.30;;;;;;4955440;29;20241;-76
2022/02/25 19:31:07;;;;;;;3.10;1.50;;;0.80;96.30;;;;;;4955431;28;20193;-76
2022/02/25 19:33:34;;;;;;;4.87;1.80;;;0.80;96.30;;;;;;4955918;29;20194;-76
2022/02/25 19:35:59;;;;;;;2.80;1.60;;;0.80;96.30;;;;;;4955838;29;20450;-76
2022/02/25 19:38:25;;;;;;;5.10;2.03;;;0.80;96.30;;;;;;4937952;29;20501;-75
2022/02/25 19:40:51;;;;;;;7.00;2.97;;;0.80;96.30;;;;;;4953808;28;20210;-76
2022/02/25 19:43:17;;;;;;;2.50;1.43;;;0.80;96.30;;;;;;4946395;29;20462;-76
2022/02/25 19:45:43;;;;;;;4.03;1.73;;;0.80;96.30;;;;;;4955156;28;20258;-75
2022/02/25 19:48:09;;;;;;;4.40;2.37;;;0.80;96.30;;;;;;4935887;29;20505;-78
2022/02/25 19:50:35;;;;;;;3.50;2.03;;;0.80;96.30;;;;;;4937746;29;20183;-76
2022/02/25 19:53:00;;;;;;;2.67;1.67;;;0.80;96.30;;;;;;4937977;29;20453;-76
2022/02/25 19:55:26;;;;;;;4.50;2.10;;;0.80;96.30;;;;;;4955188;29;20182;-76
2022/02/25 19:57:51;;;;;;;4.20;1.50;;;0.80;96.30;;;;;;4940064;28;20201;-76
2022/02/25 20:00:17;;;;;;;12.27;2.03;;;0.80;96.30;;;;;;4956924;28;20215;-76
2022/02/25 20:02:44;;;;;;;4.60;2.07;;;0.80;96.30;;;;;;4954221;29;20210;-76
2022/02/25 20:05:12;;;;;;;4.47;2.00;;;0.80;96.30;;;;;;4955100;29;20411;-76
2022/02/25 20:07:38;;;;;;;2.13;1.83;;;0.80;96.30;;;;;;4958583;28;20474;-76
2022/02/25 20:10:05;;;;;;;3.87;2.10;;;0.80;96.30;;;;;;4939501;29;20434;-76
2022/02/25 20:12:31;;;;;;;5.73;2.63;;;0.80;96.30;;;;;;4954498;28;20340;-76
2022/02/25 20:14:57;;;;;;;6.70;2.40;;;0.70;96.30;;;;;;4937694;29;20830;-76
2022/02/25 20:17:25;;;;;;;17.50;2.93;;;0.70;96.30;;;;;;4937973;29;20451;-76